Honey Creek, Illinois
Current Conditions -  °F | °C
As of 10:15 PM on Thursday 27 Nov 2014 (Local Time) from KRPJ Reporting Station
Scattered Clouds Scattered Clouds  
Wind Chill: -14°   Ceiling: Unl
Heat Index: -14°   Visibility: 10mi
Dew Point: -16°   Wind: 0mph
Humidity: 87%   Direction: NA
Pressure: 30.4"   Gusts: NA
Location:  41.9937°N, 89.1961°W
Report Text: KRPJ 280415Z AUTO 00000KT 10SM SCT120 M14/M16 A3040 RMK AO2 T11441161
Loading
Personal Weather Stations






























Interactive Weather Map New forecast layout! Learn more

10-Day Weather Forecast

Advertisements
Track Severe Weather on mobile